Chama, NM (87520)

8:58 PM MDT on August 27, 2014 (GMT -0600)
Pagosa Springs | Change Station
CLOSE
Current Station
Airport
Location: Pagosa Springs,
Elevation: 7657 ft
Nearby Weather Stations

Elev 7657 ft 37.29 °N, 107.06 °W | Updated 3 minutes ago

Scattered Clouds
Scattered Clouds
56 °F
Feels Like 56 °F
N
4
Wind Variable Wind from WNW

Today
High -- | Low -- °F
--% Chance of Precip.
Yesterday
High -- | Low -- °F
Precip. -- in
6:33 AM 7:41 PM
Waxing Crescent, 6% visible
Pressure 30.38 in
Visibility 10.0 miles
Clouds Scattered Clouds 7500 ft
Scattered Clouds 10000 ft
Dew Point 37 °F
Humidity 48%
Rainfall 0.00 in
Snow Depth 0 in
UV 0 out of 12
Pollen 9.70 out of 12
Air Quality Not available.
Flu Activity Not available.
METAR KPSO 280255Z AUTO 29003KT 10SM SCT075 SCT100 14/03 A3038 RMK AO2 T01360027

More Conditions Fewer Conditions

Pressure 30.38 in
Visibility 10.0 miles
Clouds Scattered Clouds 7500 ft
Scattered Clouds 10000 ft
Dew Point 37 °F
Humidity 48%
Rainfall 0.00 in
Snow Depth 0 in
UV 0 out of 12
Pollen 9.70 out of 12
Air Quality Not available.
Flu Activity Not available.
METAR KPSO 280255Z AUTO 29003KT 10SM SCT075 SCT100 14/03 A3038 RMK AO2 T01360027

More Conditions Fewer Conditions

10-Day Weather Forecast

Almanac

Astronomy

Aug. 27, 2014 Rise Set
Actual Time 6:33 AM MDT 7:41 PM MDT
Civil Twilight 6:06 AM MDT 8:08 PM MDT
Nautical Twilight 5:34 AM MDT 8:40 PM MDT
Astronomical Twilight 5:01 AM MDT 9:13 PM MDT
Moon 8:28 AM MDT (8/27) 8:40 PM MDT (8/27)
Length of Visible Light 14h 01m
Length of Day
13h 08m
Tomorrow will be 2m 13s shorter.
Waxing Crescent, 6% of the Moon is Illuminated
Today
Waxing Crescent
Sep 2
First Quarter
Sep 8
Full
Sep 15
Last Quarter
Sep 24
New

Today's Extremes

State Highs State Lows

Community

WunderPhotos

Upload Photos

1,747,884 photos uploaded!

Nearby

Snow Depth

Station Depth Elevation
Chamita 0 in 8400 ft
Hopewell 0 in 10000 ft
Bateman 0 in 9300 ft
Senorita Divide #2 0 in 8600 ft
Quemazon 1 in 9500 ft

Earthquake Activity

City Distance Mag. Time & Date
No recent earthquake activity has been reported nearby.
Minimum magnitude displayed is 2.5.

Coastal Water Temperatures

Place Temperature
No Stations Reporting

Nearby Weather Stations